This is the latest recevied weather packets stored in our database for station/object BM3JAS-9. If no packets are shown the sender has not sent any weather packets the latest 1 day(s).
| Time | Temp. | Humidity | Pressure | Rain* | Wind** | Luminosity | Snow |
|---|---|---|---|---|---|---|---|
| 1778066686 | 25° C | 75% | 0 hPa | - | - | - | - |
| 1778065486 | 25° C | 76% | 0 hPa | - | - | - | - |
| 1778064285 | 25.56° C | 75% | 0 hPa | - | - | - | - |
| 1778063685 | 25.56° C | 75% | 0 hPa | - | - | - | - |
| 1778062485 | 25.56° C | 74% | 0 hPa | - | - | - | - |
| 1778059485 | 26.67° C | 71% | 0 hPa | - | - | - | - |
| 1778057686 | 26.67° C | 71% | 0 hPa | - | - | - | - |
| 1778057085 | 26.67° C | 70% | 0 hPa | - | - | - | - |
| 1778055885 | 27.22° C | 70% | 0 hPa | - | - | - | - |
| 1778054685 | 27.22° C | 69% | 0 hPa | - | - | - | - |
| 1778053485 | 27.78° C | 68% | 0 hPa | - | - | - | - |
| 1778052885 | 27.78° C | 68% | 0 hPa | - | - | - | - |
| 1778051685 | 27.78° C | 68% | 0 hPa | - | - | - | - |
| 1778051085 | 27.22° C | 68% | 0 hPa | - | - | - | - |
| 1778049886 | 27.78° C | 67% | 0 hPa | - | - | - | - |
| 1778046285 | 28.89° C | 65% | 0 hPa | - | - | - | - |
| 1778044485 | 29.44° C | 67% | 0 hPa | - | - | - | - |
| 1778043886 | 28.33° C | 68% | 0 hPa | - | - | - | - |
| 1778043285 | 27.78° C | 70% | 0 hPa | - | - | - | - |
| 1778041485 | 27.22° C | 72% | 0 hPa | - | - | - | - |
| 1778040885 | 27.22° C | 73% | 0 hPa | - | - | - | - |
| 1778039085 | 26.11° C | 75% | 0 hPa | - | - | - | - |
| 1778034885 | 25.56° C | 77% | 0 hPa | - | - | - | - |
| 1778031885 | 25° C | 81% | 0 hPa | - | - | - | - |
| 1778021086 | 22.22° C | 86% | 0 hPa | - | - | - | - |
* Rain since midnight (hover to see other rain measurements)
** Current wind speed in m/s (hover to see current wind gust speed)